Hollister, Oklahoma
Current Conditions -  °F | °C
As of 6:53 PM on Wednesday 22 Oct 2014 (Local Time) from KFDR Reporting Station
Light Rain Light Rain  
Wind Chill: 64°   Ceiling: 11000
Heat Index: 64°   Visibility: 10mi
Dew Point: 60°   Wind: 7mph
Humidity: 87%   Direction: 330°NNW
Pressure: 30.07"   Gusts: NA
Location:  34.34°N, 98.87°W
Report Text: KFDR 222353Z AUTO 33006KT 10SM -RA BKN110 18/16 A3007 RMK AO2 SLP174 P0002 60004 T01780156 10244 20178 58001
Loading
Personal Weather Stations






























Interactive Weather Map
Tropical Storm Tracking
New forecast layout! Learn more

10-Day Weather Forecast

Advertisements
Track Severe Weather on mobile